Time,TemperatureF,DewpointF,PressureIn,WindDirection,WindDirectionDegrees,WindSpeedMPH,WindSpeedGustMPH,Humidity,HourlyPrecipIn,Conditions,Clouds,dailyrainin,SolarRadiationWatts/m^2,SoftwareType,DateUTC
2013-10-30 00:01:00,54.6,53.5,30.30,ESE,105,0.0,0.0,96,0.00,CLR,OVC,0.00,0.0,WeatherDisplay:10.37,2013-10-30 04:01:00,
2013-10-30 00:06:00,54.5,53.4,30.30,ESE,105,0.0,0.0,96,0.00,CLR,OVC,0.00,0.0,WeatherDisplay:10.37,2013-10-30 04:06:00,
2013-10-30 00:11:00,54.6,53.5,30.30,ESE,105,0.0,0.0,96,0.00,CLR,OVC,0.00,0.0,WeatherDisplay:10.37,2013-10-30 04:11:00,
2013-10-30 00:16:00,54.6,53.5,30.30,ESE,105,0.0,0.0,96,0.00,CLR,OVC,0.00,0.0,WeatherDisplay:10.37,2013-10-30 04:16:00,
2013-10-30 00:21:00,54.5,53.4,30.31,ESE,105,0.0,0.0,96,0.00,CLR,OVC,0.00,0.0,WeatherDisplay:10.37,2013-10-30 04:21:00,
2013-10-30 00:26:00,54.4,53.3,30.30,ESE,105,0.0,0.0,96,0.00,CLR,OVC,0.00,0.0,WeatherDisplay:10.37,2013-10-30 04:26:00,
2013-10-30 00:31:00,54.3,53.2,30.30,ESE,105,0.0,0.0,96,0.00,CLR,OVC,0.00,0.0,WeatherDisplay:10.37,2013-10-30 04:31:00,
2013-10-30 00:36:00,54.2,53.1,30.30,ESE,105,0.0,0.0,96,0.00,CLR,OVC,0.00,0.0,WeatherDisplay:10.37,2013-10-30 04:36:00,
2013-10-30 00:41:00,54.0,52.9,30.30,ESE,105,0.0,0.0,96,0.00,CLR,OVC,0.00,0.0,WeatherDisplay:10.37,2013-10-30 04:41:00,
2013-10-30 00:46:00,53.9,52.8,30.29,ESE,105,0.0,0.0,96,0.00,CLR,OVC,0.00,0.0,WeatherDisplay:10.37,2013-10-30 04:46:00,
2013-10-30 00:51:00,53.8,52.7,30.30,ESE,105,0.0,0.0,96,0.00,CLR,OVC,0.00,0.0,WeatherDisplay:10.37,2013-10-30 04:51:00,
2013-10-30 00:56:00,53.8,52.7,30.29,ESE,105,0.0,0.0,96,0.00,CLR,OVC,0.00,0.0,WeatherDisplay:10.37,2013-10-30 04:56:00,
2013-10-30 01:01:00,53.7,52.6,30.29,ESE,105,0.0,0.0,96,0.00,CLR,OVC,0.00,0.0,WeatherDisplay:10.37,2013-10-30 05:01:00,
2013-10-30 01:07:00,53.6,52.5,30.28,ESE,105,0.0,0.0,96,0.00,CLR,OVC,0.00,0.0,WeatherDisplay:10.37,2013-10-30 05:07:00,
2013-10-30 01:12:00,53.5,52.4,30.27,ESE,105,0.0,0.0,96,0.00,CLR,OVC,0.00,0.0,WeatherDisplay:10.37,2013-10-30 05:12:00,
2013-10-30 01:17:00,53.5,52.4,30.27,ESE,105,0.0,0.0,96,0.00,CLR,OVC,0.00,0.0,WeatherDisplay:10.37,2013-10-30 05:17:00,
2013-10-30 01:22:00,53.6,52.5,30.28,ESE,105,0.0,0.0,96,0.00,CLR,OVC,0.00,0.0,WeatherDisplay:10.37,2013-10-30 05:22:00,
2013-10-30 01:27:00,53.6,52.5,30.28,ESE,105,0.0,0.0,96,0.00,CLR,OVC,0.00,0.0,WeatherDisplay:10.37,2013-10-30 05:27:00,
2013-10-30 01:32:00,53.5,52.4,30.28,ESE,105,0.0,0.0,96,0.00,CLR,OVC,0.00,0.0,WeatherDisplay:10.37,2013-10-30 05:32:00,
2013-10-30 01:37:00,53.5,52.4,30.28,ESE,105,0.0,0.0,96,0.00,CLR,OVC,0.00,0.0,WeatherDisplay:10.37,2013-10-30 05:37:00,
2013-10-30 01:42:00,53.4,52.3,30.28,ESE,105,0.0,0.0,96,0.00,CLR,OVC,0.00,0.0,WeatherDisplay:10.37,2013-10-30 05:42:00,
2013-10-30 01:47:00,53.3,52.2,30.28,ESE,105,0.0,0.0,96,0.00,CLR,OVC,0.00,0.0,WeatherDisplay:10.37,2013-10-30 05:47:00,
2013-10-30 01:52:00,53.3,52.2,30.28,ESE,105,0.0,0.0,96,0.00,CLR,OVC,0.00,0.0,WeatherDisplay:10.37,2013-10-30 05:52:00,
2013-10-30 01:57:00,53.2,52.1,30.28,ESE,105,0.0,0.0,96,0.00,CLR,OVC,0.00,0.0,WeatherDisplay:10.37,2013-10-30 05:57:00,
2013-10-30 02:02:00,53.1,52.0,30.29,ESE,105,0.0,0.0,96,0.00,CLR,OVC,0.00,0.0,WeatherDisplay:10.37,2013-10-30 06:02:00,
2013-10-30 02:07:00,53.0,51.9,30.29,ESE,105,0.0,0.0,96,0.00,CLR,OVC,0.00,0.0,WeatherDisplay:10.37,2013-10-30 06:07:00,
2013-10-30 02:12:00,53.0,51.9,30.29,ESE,105,0.0,0.0,96,0.00,CLR,OVC,0.00,0.0,WeatherDisplay:10.37,2013-10-30 06:12:00,
2013-10-30 02:17:00,53.0,51.9,30.30,ESE,109,0.0,0.0,96,0.00,CLR,OVC,0.00,0.0,WeatherDisplay:10.37,2013-10-30 06:17:00,
2013-10-30 02:22:00,53.2,52.4,30.30,NNW,338,0.3,1.1,97,0.00,CLR,OVC,0.00,0.0,WeatherDisplay:10.37,2013-10-30 06:22:00,
2013-10-30 02:27:00,53.5,52.7,30.30,NNW,338,0.0,0.0,97,0.00,CLR,OVC,0.00,0.0,WeatherDisplay:10.37,2013-10-30 06:27:00,
2013-10-30 02:32:00,53.5,52.7,30.30,NNW,338,0.0,0.0,97,0.00,CLR,OVC,0.00,0.0,WeatherDisplay:10.37,2013-10-30 06:32:00,
2013-10-30 02:37:00,53.5,52.7,30.29,NNW,338,0.0,0.0,97,0.00,CLR,OVC,0.00,0.0,WeatherDisplay:10.37,2013-10-30 06:37:00,
2013-10-30 02:42:00,53.4,52.6,30.29,NNW,338,0.0,0.0,97,0.00,CLR,OVC,0.00,0.0,WeatherDisplay:10.37,2013-10-30 06:42:00,
2013-10-30 02:47:00,53.3,52.5,30.29,NNW,338,0.0,0.0,97,0.00,CLR,OVC,0.00,0.0,WeatherDisplay:10.37,2013-10-30 06:47:00,
2013-10-30 02:52:00,53.2,52.4,30.28,NNW,338,0.0,0.0,97,0.00,CLR,OVC,0.00,0.0,WeatherDisplay:10.37,2013-10-30 06:52:00,
2013-10-30 02:57:00,53.1,52.3,30.28,NNW,338,0.0,0.0,97,0.00,CLR,OVC,0.00,0.0,WeatherDisplay:10.37,2013-10-30 06:57:00,
2013-10-30 03:02:00,53.1,52.3,30.28,NNW,338,0.0,0.0,97,0.00,CLR,OVC,0.00,0.0,WeatherDisplay:10.37,2013-10-30 07:02:00,
2013-10-30 03:07:00,53.2,52.4,30.28,NNW,338,0.0,0.0,97,0.00,CLR,OVC,0.00,0.0,WeatherDisplay:10.37,2013-10-30 07:07:00,
2013-10-30 03:12:00,53.2,52.4,30.28,NNW,338,0.0,0.0,97,0.00,CLR,OVC,0.00,0.0,WeatherDisplay:10.37,2013-10-30 07:12:00,
2013-10-30 03:17:00,53.3,52.5,30.28,NNW,338,0.0,0.0,97,0.00,CLR,OVC,0.00,0.0,WeatherDisplay:10.37,2013-10-30 07:17:00,
2013-10-30 03:22:00,53.3,52.5,30.28,NNW,338,0.0,0.0,97,0.00,CLR,OVC,0.00,0.0,WeatherDisplay:10.37,2013-10-30 07:22:00,
2013-10-30 03:27:00,53.2,52.4,30.28,NNW,338,0.0,0.0,97,0.00,CLR,OVC,0.00,0.0,WeatherDisplay:10.37,2013-10-30 07:27:00,
2013-10-30 03:32:00,53.3,52.5,30.28,NNW,338,0.0,0.0,97,0.00,CLR,OVC,0.00,0.0,WeatherDisplay:10.37,2013-10-30 07:32:00,
2013-10-30 03:37:00,53.3,52.5,30.28,NNW,338,0.0,0.0,97,0.00,CLR,OVC,0.00,0.0,WeatherDisplay:10.37,2013-10-30 07:37:00,
2013-10-30 03:42:00,53.2,52.4,30.28,NNW,338,0.0,0.0,97,0.00,CLR,OVC,0.00,0.0,WeatherDisplay:10.37,2013-10-30 07:42:00,
2013-10-30 03:47:00,53.1,52.3,30.28,NNW,338,0.0,0.0,97,0.00,CLR,OVC,0.00,0.0,WeatherDisplay:10.37,2013-10-30 07:47:00,
2013-10-30 03:52:00,53.0,52.2,30.28,NNW,338,0.0,0.0,97,0.00,CLR,OVC,0.00,0.0,WeatherDisplay:10.37,2013-10-30 07:52:00,
2013-10-30 03:57:00,52.9,52.1,30.27,NNW,338,0.0,0.0,97,0.00,CLR,OVC,0.00,0.0,WeatherDisplay:10.37,2013-10-30 07:57:00,
2013-10-30 04:02:00,52.8,52.0,30.27,NNW,338,0.0,0.0,97,0.00,CLR,OVC,0.00,0.0,WeatherDisplay:10.37,2013-10-30 08:02:00,
2013-10-30 04:07:00,52.6,51.8,30.27,NNW,338,0.0,0.0,97,0.00,CLR,OVC,0.00,0.0,WeatherDisplay:10.37,2013-10-30 08:07:00,
2013-10-30 04:12:00,52.5,51.7,30.28,NNW,338,0.0,0.0,97,0.00,CLR,OVC,0.00,0.0,WeatherDisplay:10.37,2013-10-30 08:12:00,
2013-10-30 04:17:00,52.5,51.7,30.27,NNW,338,0.0,0.0,97,0.00,CLR,OVC,0.00,0.0,WeatherDisplay:10.37,2013-10-30 08:17:00,
2013-10-30 04:22:00,52.6,51.8,30.27,NNW,338,0.0,0.0,97,0.00,CLR,OVC,0.00,0.0,WeatherDisplay:10.37,2013-10-30 08:22:00,
2013-10-30 04:27:00,52.6,51.8,30.27,NNW,338,0.0,0.0,97,0.00,CLR,OVC,0.00,0.0,WeatherDisplay:10.37,2013-10-30 08:27:00,
2013-10-30 04:32:00,52.6,51.8,30.27,NNW,338,0.0,0.0,97,0.00,CLR,OVC,0.00,0.0,WeatherDisplay:10.37,2013-10-30 08:32:00,
2013-10-30 04:37:00,52.4,51.6,30.27,NNW,338,0.0,0.0,97,0.00,CLR,OVC,0.00,0.0,WeatherDisplay:10.37,2013-10-30 08:37:00,
2013-10-30 04:42:00,52.4,51.6,30.27,NNW,338,0.0,0.0,97,0.00,CLR,OVC,0.00,0.0,WeatherDisplay:10.37,2013-10-30 08:42:00,
2013-10-30 04:47:00,52.2,51.4,30.27,NNW,338,0.0,0.0,97,0.00,CLR,OVC,0.00,0.0,WeatherDisplay:10.37,2013-10-30 08:47:00,
2013-10-30 04:52:00,52.1,51.3,30.27,NNW,338,0.0,0.0,97,0.00,CLR,OVC,0.00,0.0,WeatherDisplay:10.37,2013-10-30 08:52:00,
2013-10-30 04:57:00,51.9,51.1,30.27,NNW,338,0.0,0.0,97,0.00,CLR,OVC,0.00,0.0,WeatherDisplay:10.37,2013-10-30 08:57:00,
2013-10-30 05:02:00,51.8,51.0,30.27,NNW,338,0.0,0.0,97,0.00,CLR,OVC,0.00,0.0,WeatherDisplay:10.37,2013-10-30 09:02:00,
2013-10-30 05:07:00,51.7,50.9,30.28,NNW,338,0.0,0.0,97,0.00,CLR,OVC,0.00,0.0,WeatherDisplay:10.37,2013-10-30 09:07:00,
2013-10-30 05:12:00,51.6,50.8,30.28,NNW,338,0.0,0.0,97,0.00,CLR,OVC,0.00,0.0,WeatherDisplay:10.37,2013-10-30 09:12:00,
2013-10-30 05:17:00,51.6,50.8,30.28,NNW,338,0.0,0.0,97,0.00,CLR,OVC,0.00,0.0,WeatherDisplay:10.37,2013-10-30 09:17:00,
2013-10-30 05:22:00,51.5,50.7,30.28,NNW,338,0.0,0.0,97,0.00,CLR,OVC,0.00,0.0,WeatherDisplay:10.37,2013-10-30 09:22:00,
2013-10-30 05:27:00,51.4,50.6,30.28,NNW,338,0.0,0.0,97,0.00,CLR,OVC,0.00,0.0,WeatherDisplay:10.37,2013-10-30 09:27:00,
2013-10-30 05:32:00,51.3,50.5,30.28,NNW,338,0.0,0.0,97,0.00,CLR,OVC,0.00,0.0,WeatherDisplay:10.37,2013-10-30 09:32:00,
2013-10-30 05:37:00,51.2,50.4,30.28,NNW,338,0.0,0.0,97,0.00,CLR,OVC,0.00,0.0,WeatherDisplay:10.37,2013-10-30 09:37:00,
2013-10-30 05:42:00,51.1,50.3,30.28,NNW,338,0.0,0.0,97,0.00,CLR,OVC,0.00,0.0,WeatherDisplay:10.37,2013-10-30 09:42:00,
2013-10-30 05:47:00,51.1,50.3,30.28,NNW,338,0.0,0.0,97,0.00,CLR,OVC,0.00,0.0,WeatherDisplay:10.37,2013-10-30 09:47:00,
2013-10-30 05:52:00,51.0,50.2,30.28,NNW,338,0.0,0.0,97,0.00,CLR,OVC,0.00,0.0,WeatherDisplay:10.37,2013-10-30 09:52:00,
2013-10-30 05:57:00,51.0,50.2,30.28,NNW,338,0.0,0.0,97,0.00,CLR,OVC,0.00,0.0,WeatherDisplay:10.37,2013-10-30 09:57:00,
2013-10-30 06:03:00,51.0,50.2,30.28,NNW,338,0.0,0.0,97,0.00,CLR,OVC,0.00,0.0,WeatherDisplay:10.37,2013-10-30 10:03:00,
2013-10-30 06:08:00,50.9,50.1,30.28,NNW,338,0.0,0.0,97,0.00,CLR,OVC,0.00,0.0,WeatherDisplay:10.37,2013-10-30 10:08:00,
2013-10-30 06:13:00,50.9,50.1,30.28,NNW,338,0.0,0.0,97,0.00,CLR,OVC,0.00,0.0,WeatherDisplay:10.37,2013-10-30 10:13:00,
2013-10-30 06:18:00,50.9,50.1,30.28,NNW,338,0.0,0.0,97,0.00,CLR,OVC,0.00,0.0,WeatherDisplay:10.37,2013-10-30 10:18:00,
2013-10-30 06:23:00,50.9,50.1,30.28,NNW,338,0.0,0.0,97,0.00,CLR,OVC,0.00,0.0,WeatherDisplay:10.37,2013-10-30 10:23:00,
2013-10-30 06:28:00,50.8,50.0,30.28,NNW,338,0.0,0.0,97,0.00,CLR,OVC,0.00,0.0,WeatherDisplay:10.37,2013-10-30 10:28:00,
2013-10-30 06:33:00,50.7,49.9,30.28,NNW,338,0.0,0.0,97,0.00,CLR,OVC,0.00,0.0,WeatherDisplay:10.37,2013-10-30 10:33:00,
2013-10-30 06:38:00,50.7,49.9,30.28,NNW,338,0.0,0.0,97,0.00,CLR,OVC,0.00,0.0,WeatherDisplay:10.37,2013-10-30 10:38:00,
2013-10-30 06:43:00,50.6,49.8,30.28,NNW,338,0.0,0.0,97,0.00,CLR,OVC,0.00,0.0,WeatherDisplay:10.37,2013-10-30 10:43:00,
2013-10-30 06:48:00,50.5,49.7,30.28,NNW,338,0.0,0.0,97,0.00,CLR,OVC,0.00,0.0,WeatherDisplay:10.37,2013-10-30 10:48:00,
2013-10-30 06:53:00,50.5,49.7,30.29,NNW,338,0.0,0.0,97,0.00,CLR,OVC,0.00,0.0,WeatherDisplay:10.37,2013-10-30 10:53:00,
2013-10-30 06:58:00,50.5,49.7,30.29,NNW,338,0.0,0.0,97,0.00,CLR,OVC,0.00,0.0,WeatherDisplay:10.37,2013-10-30 10:58:00,
2013-10-30 07:03:00,50.6,49.8,30.29,NNW,338,0.0,0.0,97,0.00,OVC,,0.00,0.0,WeatherDisplay:10.37,2013-10-30 11:03:00,
2013-10-30 07:08:00,50.6,49.8,30.29,NNW,338,0.0,0.0,97,0.00,OVC,,0.00,0.0,WeatherDisplay:10.37,2013-10-30 11:08:00,
2013-10-30 07:13:00,50.7,49.9,30.29,NNW,338,0.0,0.0,97,0.00,OVC,,0.00,0.0,WeatherDisplay:10.37,2013-10-30 11:13:00,
2013-10-30 07:18:00,50.6,49.8,30.29,NNW,338,0.0,0.0,97,0.00,OVC,,0.00,0.0,WeatherDisplay:10.37,2013-10-30 11:18:00,
2013-10-30 07:23:00,50.6,49.8,30.29,NNW,338,0.0,0.0,97,0.00,OVC,,0.00,0.0,WeatherDisplay:10.37,2013-10-30 11:23:00,
2013-10-30 07:28:00,50.5,49.7,30.30,NNW,338,0.0,0.0,97,0.00,OVC,,0.00,0.0,WeatherDisplay:10.37,2013-10-30 11:28:00,
2013-10-30 07:33:00,50.5,49.7,30.30,NNW,338,0.0,0.0,97,0.00,OVC,,0.00,0.0,WeatherDisplay:10.37,2013-10-30 11:33:00,
2013-10-30 07:38:00,50.5,50.0,30.30,NNW,338,0.0,0.0,98,0.00,OVC,,0.00,0.0,WeatherDisplay:10.37,2013-10-30 11:38:00,
2013-10-30 07:43:00,50.5,50.0,30.30,NNW,338,0.0,0.0,98,0.00,OVC,,0.00,0.0,WeatherDisplay:10.37,2013-10-30 11:43:00,
2013-10-30 07:48:00,50.5,50.0,30.30,NNW,338,0.0,0.0,98,0.00,OVC,,0.00,0.0,WeatherDisplay:10.37,2013-10-30 11:48:00,
2013-10-30 07:53:00,50.6,50.1,30.30,NNW,338,0.0,0.0,98,0.00,OVC,,0.00,0.0,WeatherDisplay:10.37,2013-10-30 11:53:00,
2013-10-30 07:58:00,50.7,50.2,30.30,NNW,338,0.0,0.0,98,0.00,OVC,,0.00,0.0,WeatherDisplay:10.37,2013-10-30 11:58:00,
2013-10-30 08:03:00,50.8,50.3,30.30,NNW,338,0.0,0.0,98,0.00,OVC,,0.00,0.0,WeatherDisplay:10.37,2013-10-30 12:03:00,
2013-10-30 08:08:00,51.3,50.8,30.31,NNW,338,0.0,0.0,98,0.00,OVC,,0.00,0.0,WeatherDisplay:10.37,2013-10-30 12:08:00,
2013-10-30 08:13:00,52.3,51.8,30.31,NNE,17,0.0,0.0,98,0.00,OVC,,0.00,0.0,WeatherDisplay:10.37,2013-10-30 12:13:00,
2013-10-30 08:18:00,53.2,52.7,30.31,WSW,257,0.0,0.0,98,0.00,OVC,,0.00,0.0,WeatherDisplay:10.37,2013-10-30 12:18:00,
2013-10-30 08:23:00,54.2,53.6,30.31,North,355,0.0,0.0,98,0.00,OVC,,0.00,0.0,WeatherDisplay:10.37,2013-10-30 12:23:00,
2013-10-30 08:28:00,55.5,54.9,30.31,North,360,0.0,0.0,98,0.00,OVC,,0.00,0.0,WeatherDisplay:10.37,2013-10-30 12:28:00,
2013-10-30 08:33:00,56.1,55.5,30.30,NW,323,0.0,0.0,98,0.00,OVC,,0.00,0.0,WeatherDisplay:10.37,2013-10-30 12:33:00,
2013-10-30 08:38:00,57.1,56.8,30.31,NNW,330,0.0,0.0,99,0.00,OVC,,0.00,0.0,WeatherDisplay:10.37,2013-10-30 12:38:00,
2013-10-30 08:43:00,57.8,57.5,30.31,NNW,330,0.0,0.0,99,0.00,OVC,,0.00,0.0,WeatherDisplay:10.37,2013-10-30 12:43:00,
2013-10-30 08:48:00,58.3,58.0,30.31,NNW,330,0.1,1.1,99,0.00,OVC,,0.00,0.0,WeatherDisplay:10.37,2013-10-30 12:48:00,
2013-10-30 08:53:00,58.9,58.6,30.31,NNW,330,0.0,0.0,99,0.00,OVC,,0.00,0.0,WeatherDisplay:10.37,2013-10-30 12:53:00,
2013-10-30 08:58:00,59.6,59.3,30.31,NNW,330,0.0,0.0,99,0.00,OVC,,0.00,0.0,WeatherDisplay:10.37,2013-10-30 12:58:00,
2013-10-30 09:03:00,60.1,59.5,30.31,NNW,330,0.0,0.0,98,0.00,OVC,,0.00,0.0,WeatherDisplay:10.37,2013-10-30 13:03:00,
2013-10-30 09:08:00,60.8,59.7,30.31,NNW,330,0.0,0.0,96,0.00,OVC,,0.00,0.0,WeatherDisplay:10.37,2013-10-30 13:08:00,
2013-10-30 09:13:00,61.7,60.3,30.32,NNW,330,0.0,0.0,95,0.00,OVC,,0.00,0.0,WeatherDisplay:10.37,2013-10-30 13:13:00,
2013-10-30 09:18:00,62.4,60.3,30.32,NNW,328,0.0,2.3,93,0.00,OVC,,0.00,0.0,WeatherDisplay:10.37,2013-10-30 13:18:00,
2013-10-30 09:23:00,63.3,60.9,30.31,NW,324,0.1,1.1,92,0.00,OVC,,0.00,0.0,WeatherDisplay:10.37,2013-10-30 13:23:00,
2013-10-30 09:28:00,63.9,60.9,30.31,NNW,330,0.0,0.0,90,0.00,OVC,,0.00,0.0,WeatherDisplay:10.37,2013-10-30 13:28:00,
2013-10-30 09:33:00,64.5,60.9,30.32,NW,308,0.0,0.0,88,0.00,OVC,,0.00,0.0,WeatherDisplay:10.37,2013-10-30 13:33:00,
2013-10-30 09:38:00,65.5,61.9,30.32,NW,308,0.0,0.0,88,0.00,OVC,,0.00,0.0,WeatherDisplay:10.37,2013-10-30 13:38:00,
2013-10-30 09:44:00,66.6,61.9,30.32,NW,307,0.0,0.0,85,0.00,OVC,,0.00,0.0,WeatherDisplay:10.37,2013-10-30 13:44:00,
2013-10-30 09:49:00,67.2,62.2,30.32,NW,309,0.0,0.0,84,0.00,OVC,,0.00,0.0,WeatherDisplay:10.37,2013-10-30 13:49:00,
2013-10-30 09:54:00,68.3,63.3,30.32,NW,309,0.0,0.0,84,0.00,OVC,,0.00,0.0,WeatherDisplay:10.37,2013-10-30 13:54:00,
2013-10-30 09:59:00,69.4,63.7,30.32,NW,309,0.0,0.0,82,0.00,OVC,,0.00,0.0,WeatherDisplay:10.37,2013-10-30 13:59:00,
2013-10-30 10:04:00,70.0,63.5,30.32,NNE,19,0.0,0.0,80,0.00,OVC,,0.00,0.0,WeatherDisplay:10.37,2013-10-30 14:04:00,
2013-10-30 10:09:00,70.0,63.5,30.32,NNE,20,0.0,0.0,80,0.00,OVC,,0.00,0.0,WeatherDisplay:10.37,2013-10-30 14:09:00,
2013-10-30 10:14:00,70.1,63.6,30.32,NNW,338,0.0,0.0,80,0.00,OVC,,0.00,0.0,WeatherDisplay:10.37,2013-10-30 14:14:00,
2013-10-30 10:19:00,70.5,64.0,30.32,ENE,67,0.0,0.0,80,0.00,OVC,,0.00,0.0,WeatherDisplay:10.37,2013-10-30 14:19:00,
2013-10-30 10:24:00,71.1,63.9,30.32,ENE,58,0.0,0.0,78,0.00,OVC,,0.00,0.0,WeatherDisplay:10.37,2013-10-30 14:24:00,
2013-10-30 10:29:00,71.6,64.0,30.32,ENE,74,0.0,0.0,77,0.00,OVC,,0.00,0.0,WeatherDisplay:10.37,2013-10-30 14:29:00,
2013-10-30 10:34:00,71.6,63.6,30.31,NE,49,0.0,0.0,76,0.00,OVC,,0.00,0.0,WeatherDisplay:10.37,2013-10-30 14:34:00,
2013-10-30 10:39:00,71.8,63.8,30.32,NE,49,0.0,0.0,76,0.00,OVC,,0.00,0.0,WeatherDisplay:10.37,2013-10-30 14:39:00,
2013-10-30 10:44:00,72.1,63.4,30.32,NE,48,0.0,0.0,74,0.00,OVC,,0.00,0.0,WeatherDisplay:10.37,2013-10-30 14:44:00,
2013-10-30 10:49:00,72.6,62.7,30.32,NE,36,0.0,0.0,71,0.00,OVC,,0.00,0.0,WeatherDisplay:10.37,2013-10-30 14:49:00,
2013-10-30 10:54:00,72.8,61.2,30.32,ENE,73,0.0,0.0,67,0.00,OVC,,0.00,0.0,WeatherDisplay:10.37,2013-10-30 14:54:00,
2013-10-30 10:59:00,73.0,61.8,30.32,ENE,74,0.0,0.0,68,0.00,OVC,,0.00,0.0,WeatherDisplay:10.37,2013-10-30 14:59:00,
2013-10-30 11:04:00,73.4,60.5,30.31,ENE,74,0.0,0.0,64,0.00,OVC,,0.00,0.0,WeatherDisplay:10.37,2013-10-30 15:04:00,
2013-10-30 11:09:00,74.0,60.6,30.31,NNW,338,0.0,0.0,63,0.00,OVC,,0.00,0.0,WeatherDisplay:10.37,2013-10-30 15:09:00,
2013-10-30 11:14:00,74.8,61.4,30.31,NNW,339,0.0,0.0,63,0.00,OVC,,0.00,0.0,WeatherDisplay:10.37,2013-10-30 15:14:00,
2013-10-30 11:19:00,75.4,61.5,30.31,West,267,0.0,0.0,62,0.00,OVC,,0.00,0.0,WeatherDisplay:10.37,2013-10-30 15:19:00,
2013-10-30 11:24:00,76.0,60.6,30.31,SW,215,0.0,0.0,59,0.00,OVC,,0.00,0.0,WeatherDisplay:10.37,2013-10-30 15:24:00,
2013-10-30 11:29:00,76.4,60.5,30.31,ENE,78,0.0,0.0,58,0.00,OVC,,0.00,0.0,WeatherDisplay:10.37,2013-10-30 15:29:00,
2013-10-30 11:34:00,76.4,59.5,30.31,ENE,61,0.0,3.5,56,0.00,OVC,,0.00,0.0,WeatherDisplay:10.37,2013-10-30 15:34:00,
2013-10-30 11:39:00,76.3,60.4,30.31,North,360,0.0,0.0,58,0.00,OVC,,0.00,0.0,WeatherDisplay:10.37,2013-10-30 15:39:00,
2013-10-30 11:44:00,76.7,61.3,30.31,NW,315,0.0,0.0,59,0.00,OVC,,0.00,0.0,WeatherDisplay:10.37,2013-10-30 15:44:00,
2013-10-30 11:49:00,77.0,59.6,30.31,ENE,76,0.0,0.0,55,0.00,OVC,,0.00,0.0,WeatherDisplay:10.37,2013-10-30 15:49:00,
2013-10-30 11:54:00,77.2,59.3,30.30,South,180,0.0,0.0,54,0.00,OVC,,0.00,0.0,WeatherDisplay:10.37,2013-10-30 15:54:00,
2013-10-30 11:59:00,77.4,58.9,30.30,SW,217,0.0,1.1,53,0.00,OVC,,0.00,0.0,WeatherDisplay:10.37,2013-10-30 15:59:00,
2013-10-30 12:04:00,76.6,58.7,30.30,South,179,0.4,1.1,54,0.00,OVC,,0.00,0.0,WeatherDisplay:10.37,2013-10-30 16:04:00,
2013-10-30 12:09:00,76.4,59.0,30.30,North,5,0.0,0.0,55,0.00,OVC,,0.00,0.0,WeatherDisplay:10.37,2013-10-30 16:09:00,
2013-10-30 12:14:00,76.6,58.7,30.29,SW,215,2.5,5.8,54,0.00,OVC,,0.00,0.0,WeatherDisplay:10.37,2013-10-30 16:14:00,
2013-10-30 12:19:00,76.6,58.2,30.29,WNW,292,0.0,0.0,53,0.00,OVC,,0.00,0.0,WeatherDisplay:10.37,2013-10-30 16:19:00,
2013-10-30 12:24:00,76.8,58.4,30.29,WNW,293,0.0,0.0,53,0.00,OVC,,0.00,0.0,WeatherDisplay:10.37,2013-10-30 16:24:00,
2013-10-30 12:29:00,77.0,58.6,30.28,WNW,292,0.0,0.0,53,0.00,OVC,,0.00,0.0,WeatherDisplay:10.37,2013-10-30 16:29:00,
2013-10-30 12:34:00,77.0,58.6,30.28,NNW,344,0.0,0.0,53,0.00,OVC,,0.00,0.0,WeatherDisplay:10.37,2013-10-30 16:34:00,
2013-10-30 12:39:00,76.7,58.3,30.28,East,96,0.0,0.0,53,0.00,OVC,,0.00,0.0,WeatherDisplay:10.37,2013-10-30 16:39:00,
2013-10-30 12:44:00,77.1,59.2,30.27,ENE,64,0.0,0.0,54,0.00,OVC,,0.00,0.0,WeatherDisplay:10.37,2013-10-30 16:44:00,
2013-10-30 12:49:00,77.3,61.4,30.27,NE,46,0.9,3.5,58,0.00,OVC,,0.00,0.0,WeatherDisplay:10.37,2013-10-30 16:49:00,
2013-10-30 12:54:00,76.6,62.1,30.27,East,96,0.0,0.0,61,0.00,OVC,,0.00,0.0,WeatherDisplay:10.37,2013-10-30 16:54:00,
2013-10-30 12:59:00,76.0,61.1,30.27,ENE,68,0.0,0.0,60,0.00,OVC,,0.00,0.0,WeatherDisplay:10.37,2013-10-30 16:59:00,
2013-10-30 13:04:00,75.2,61.3,30.26,ESE,104,0.0,0.0,62,0.00,OVC,,0.00,0.0,WeatherDisplay:10.37,2013-10-30 17:04:00,
2013-10-30 13:09:00,74.4,61.0,30.26,East,84,1.8,4.6,63,0.00,OVC,,0.00,0.0,WeatherDisplay:10.37,2013-10-30 17:09:00,
2013-10-30 13:14:00,73.9,61.4,30.26,SE,129,0.4,3.5,65,0.00,OVC,,0.00,0.0,WeatherDisplay:10.37,2013-10-30 17:14:00,
2013-10-30 13:19:00,73.8,61.3,30.25,East,99,0.0,2.3,65,0.00,OVC,,0.00,0.0,WeatherDisplay:10.37,2013-10-30 17:19:00,
2013-10-30 13:24:00,73.4,61.3,30.25,ESE,114,0.6,4.0,66,0.00,OVC,,0.00,0.0,WeatherDisplay:10.37,2013-10-30 17:24:00,
2013-10-30 13:29:00,73.0,61.8,30.25,SSE,167,1.4,4.6,68,0.00,OVC,,0.00,0.0,WeatherDisplay:10.37,2013-10-30 17:29:00,
2013-10-30 13:34:00,72.5,61.7,30.25,East,80,2.0,5.0,69,0.00,OVC,,0.00,0.0,WeatherDisplay:10.37,2013-10-30 17:34:00,
2013-10-30 13:39:00,72.2,61.5,30.25,East,80,0.5,2.3,69,0.00,OVC,,0.00,0.0,WeatherDisplay:10.37,2013-10-30 17:39:00,
2013-10-30 13:44:00,72.2,61.9,30.24,ENE,78,0.0,0.0,70,0.00,OVC,,0.00,0.0,WeatherDisplay:10.37,2013-10-30 17:44:00,
2013-10-30 13:49:00,72.6,61.4,30.24,East,82,3.3,5.8,68,0.00,OVC,,0.00,0.0,WeatherDisplay:10.37,2013-10-30 17:49:00,
2013-10-30 13:54:00,73.0,61.8,30.24,ESE,107,0.0,0.0,68,0.00,OVC,,0.00,0.0,WeatherDisplay:10.37,2013-10-30 17:54:00,
2013-10-30 13:59:00,73.6,62.0,30.24,SE,139,1.2,3.5,67,0.00,OVC,,0.00,0.0,WeatherDisplay:10.37,2013-10-30 17:59:00,
2013-10-30 14:04:00,74.1,62.0,30.24,ESE,115,0.1,1.1,66,0.00,OVC,,0.00,0.0,WeatherDisplay:10.37,2013-10-30 18:04:00,
2013-10-30 14:09:00,74.1,61.6,30.24,East,96,0.0,0.0,65,0.00,OVC,,0.00,0.0,WeatherDisplay:10.37,2013-10-30 18:09:00,
2013-10-30 14:14:00,74.2,61.7,30.24,ENE,65,1.5,7.0,65,0.00,OVC,,0.00,0.0,WeatherDisplay:10.37,2013-10-30 18:14:00,
2013-10-30 14:19:00,74.3,61.3,30.23,East,84,0.0,6.9,64,0.00,OVC,,0.00,0.0,WeatherDisplay:10.37,2013-10-30 18:19:00,
2013-10-30 14:24:00,74.3,61.3,30.23,South,173,1.0,3.5,64,0.00,OVC,,0.00,0.0,WeatherDisplay:10.37,2013-10-30 18:24:00,
2013-10-30 14:29:00,74.4,61.4,30.23,ESE,123,0.7,2.3,64,0.00,OVC,,0.00,0.0,WeatherDisplay:10.37,2013-10-30 18:29:00,
2013-10-30 14:35:00,74.0,61.0,30.23,ESE,120,2.4,6.9,64,0.00,OVC,,0.00,0.0,WeatherDisplay:10.37,2013-10-30 18:35:00,
2013-10-30 14:40:00,73.4,60.9,30.23,ESE,104,3.8,6.9,65,0.00,OVC,,0.00,0.0,WeatherDisplay:10.37,2013-10-30 18:40:00,
2013-10-30 14:45:00,73.2,61.2,30.23,ESE,107,1.0,4.6,66,0.00,OVC,,0.00,0.0,WeatherDisplay:10.37,2013-10-30 18:45:00,
2013-10-30 14:50:00,73.2,61.6,30.23,SE,135,3.3,6.9,67,0.00,OVC,,0.00,0.0,WeatherDisplay:10.37,2013-10-30 18:50:00,
2013-10-30 14:55:00,73.3,61.7,30.23,East,94,1.8,5.0,67,0.00,OVC,,0.00,0.0,WeatherDisplay:10.37,2013-10-30 18:55:00,
2013-10-30 15:00:00,73.6,62.0,30.22,ENE,78,1.1,5.0,67,0.00,OVC,,0.00,0.0,WeatherDisplay:10.37,2013-10-30 19:00:00,
2013-10-30 15:05:00,73.8,60.9,30.22,East,87,2.9,8.1,64,0.00,OVC,,0.00,0.0,WeatherDisplay:10.37,2013-10-30 19:05:00,
2013-10-30 15:10:00,73.6,60.2,30.22,East,96,2.0,4.6,63,0.00,OVC,,0.00,0.0,WeatherDisplay:10.37,2013-10-30 19:10:00,
2013-10-30 15:15:00,73.3,60.4,30.22,ENE,61,1.9,5.8,64,0.00,OVC,,0.00,0.0,WeatherDisplay:10.37,2013-10-30 19:15:00,
2013-10-30 15:20:00,73.3,60.4,30.21,SE,138,4.6,8.1,64,0.00,OVC,,0.00,0.0,WeatherDisplay:10.37,2013-10-30 19:20:00,
2013-10-30 15:25:00,73.1,60.6,30.21,SE,131,2.4,6.9,65,0.00,OVC,,0.00,0.0,WeatherDisplay:10.37,2013-10-30 19:25:00,
2013-10-30 15:30:00,73.2,60.7,30.21,ESE,111,3.5,6.9,65,0.00,OVC,,0.00,0.0,WeatherDisplay:10.37,2013-10-30 19:30:00,
2013-10-30 15:35:00,73.0,60.5,30.21,East,88,2.6,6.9,65,0.00,OVC,,0.00,0.0,WeatherDisplay:10.37,2013-10-30 19:35:00,
2013-10-30 15:40:00,73.0,61.0,30.21,East,94,0.0,1.1,66,0.00,OVC,,0.00,0.0,WeatherDisplay:10.37,2013-10-30 19:40:00,
2013-10-30 15:45:00,73.4,60.9,30.21,SE,128,0.2,2.3,65,0.00,OVC,,0.00,0.0,WeatherDisplay:10.37,2013-10-30 19:45:00,
2013-10-30 15:50:00,74.0,61.0,30.21,South,183,3.0,5.8,64,0.00,OVC,,0.00,0.0,WeatherDisplay:10.37,2013-10-30 19:50:00,
2013-10-30 15:55:00,74.2,61.2,30.21,ESE,107,0.3,3.5,64,0.00,OVC,,0.00,0.0,WeatherDisplay:10.37,2013-10-30 19:55:00,
2013-10-30 16:00:00,73.7,60.8,30.21,NE,55,0.9,4.0,64,0.00,OVC,,0.00,0.0,WeatherDisplay:10.37,2013-10-30 20:00:00,
2013-10-30 16:05:00,73.2,61.6,30.21,ESE,102,0.8,4.6,67,0.00,OVC,,0.00,0.0,WeatherDisplay:10.37,2013-10-30 20:05:00,
2013-10-30 16:10:00,72.9,61.7,30.21,SE,125,3.0,6.9,68,0.00,OVC,,0.00,0.0,WeatherDisplay:10.37,2013-10-30 20:10:00,
2013-10-30 16:15:00,72.7,61.5,30.21,SE,136,1.0,3.5,68,0.00,OVC,,0.00,0.0,WeatherDisplay:10.37,2013-10-30 20:15:00,
2013-10-30 16:20:00,73.0,61.4,30.21,South,172,0.0,2.3,67,0.00,OVC,,0.00,0.0,WeatherDisplay:10.37,2013-10-30 20:20:00,
2013-10-30 16:25:00,73.2,61.6,30.21,ESE,115,0.5,2.3,67,0.00,OVC,,0.00,0.0,WeatherDisplay:10.37,2013-10-30 20:25:00,
2013-10-30 16:30:00,73.2,61.6,30.20,ESE,118,0.5,4.6,67,0.00,OVC,,0.00,0.0,WeatherDisplay:10.37,2013-10-30 20:30:00,
2013-10-30 16:35:00,73.1,62.3,30.20,ESE,112,1.4,3.5,69,0.00,OVC,,0.00,0.0,WeatherDisplay:10.37,2013-10-30 20:35:00,
2013-10-30 16:40:00,72.8,61.6,30.21,SW,226,0.3,3.5,68,0.00,OVC,,0.00,0.0,WeatherDisplay:10.37,2013-10-30 20:40:00,
2013-10-30 16:45:00,72.9,60.4,30.21,East,86,0.9,3.5,65,0.00,OVC,,0.00,0.0,WeatherDisplay:10.37,2013-10-30 20:45:00,
2013-10-30 16:50:00,72.5,60.5,30.21,ESE,111,0.0,1.1,66,0.00,OVC,,0.00,0.0,WeatherDisplay:10.37,2013-10-30 20:50:00,
2013-10-30 16:55:00,72.2,60.6,30.20,East,89,0.0,0.0,67,0.00,OVC,,0.00,0.0,WeatherDisplay:10.37,2013-10-30 20:55:00,
2013-10-30 17:00:00,72.4,60.4,30.20,South,181,2.3,5.0,66,0.00,OVC,,0.00,0.0,WeatherDisplay:10.37,2013-10-30 21:00:00,
2013-10-30 17:05:00,72.5,60.1,30.20,SSE,161,0.7,2.3,65,0.00,OVC,,0.00,0.0,WeatherDisplay:10.37,2013-10-30 21:05:00,
2013-10-30 17:10:00,72.7,60.7,30.20,South,172,0.2,1.1,66,0.00,OVC,,0.00,0.0,WeatherDisplay:10.37,2013-10-30 21:10:00,
2013-10-30 17:15:00,72.8,60.8,30.20,SE,138,0.4,3.5,66,0.00,OVC,,0.00,0.0,WeatherDisplay:10.37,2013-10-30 21:15:00,
2013-10-30 17:20:00,72.6,60.6,30.20,ESE,113,0.0,1.0,66,0.00,OVC,,0.00,0.0,WeatherDisplay:10.37,2013-10-30 21:20:00,
2013-10-30 17:25:00,72.0,60.0,30.20,ESE,109,1.7,5.8,66,0.00,OVC,,0.00,0.0,WeatherDisplay:10.37,2013-10-30 21:25:00,
2013-10-30 17:30:00,71.5,59.5,30.20,SSE,163,0.0,0.0,66,0.00,OVC,,0.00,0.0,WeatherDisplay:10.37,2013-10-30 21:30:00,
2013-10-30 17:35:00,71.2,60.1,30.20,East,101,0.0,2.3,68,0.00,OVC,,0.00,0.0,WeatherDisplay:10.37,2013-10-30 21:35:00,
2013-10-30 17:40:00,70.9,59.8,30.20,East,92,0.0,0.0,68,0.00,OVC,,0.00,0.0,WeatherDisplay:10.37,2013-10-30 21:40:00,
2013-10-30 17:45:00,70.6,60.3,30.21,SE,128,1.1,5.8,70,0.00,OVC,,0.00,0.0,WeatherDisplay:10.37,2013-10-30 21:45:00,
2013-10-30 17:50:00,70.4,60.5,30.21,East,99,0.0,0.0,71,0.00,OVC,,0.00,0.0,WeatherDisplay:10.37,2013-10-30 21:50:00,
2013-10-30 17:55:00,70.1,60.7,30.21,South,172,0.0,0.0,72,0.00,OVC,,0.00,0.0,WeatherDisplay:10.37,2013-10-30 21:55:00,
2013-10-30 18:00:00,69.8,60.8,30.21,SSE,167,0.0,0.0,73,0.00,OVC,,0.00,0.0,WeatherDisplay:10.37,2013-10-30 22:00:00,
2013-10-30 18:05:00,69.5,60.8,30.21,SE,140,0.0,2.3,74,0.00,OVC,,0.00,0.0,WeatherDisplay:10.37,2013-10-30 22:05:00,
2013-10-30 18:10:00,69.3,60.7,30.21,South,184,0.0,0.0,74,0.00,OVC,,0.00,0.0,WeatherDisplay:10.37,2013-10-30 22:10:00,
2013-10-30 18:15:00,69.1,60.8,30.22,South,188,0.0,0.0,75,0.00,OVC,,0.00,0.0,WeatherDisplay:10.37,2013-10-30 22:15:00,
2013-10-30 18:20:00,68.8,60.6,30.22,South,188,0.0,0.0,75,0.00,OVC,,0.00,0.0,WeatherDisplay:10.37,2013-10-30 22:20:00,
2013-10-30 18:25:00,68.6,60.7,30.22,South,184,0.0,0.0,76,0.00,OVC,,0.00,0.0,WeatherDisplay:10.37,2013-10-30 22:25:00,
2013-10-30 18:30:00,68.4,60.5,30.21,South,184,0.0,0.0,76,0.00,OVC,,0.00,0.0,WeatherDisplay:10.37,2013-10-30 22:30:00,
2013-10-30 18:35:00,68.1,60.6,30.22,South,184,0.0,0.0,77,0.00,OVC,,0.00,0.0,WeatherDisplay:10.37,2013-10-30 22:35:00,
2013-10-30 18:40:00,67.8,61.0,30.22,South,184,0.0,0.0,79,0.00,OVC,,0.00,0.0,WeatherDisplay:10.37,2013-10-30 22:40:00,
2013-10-30 18:45:00,67.2,60.8,30.22,South,184,0.0,0.0,80,0.00,OVC,,0.00,0.0,WeatherDisplay:10.37,2013-10-30 22:45:00,
2013-10-30 18:50:00,66.7,60.7,30.22,South,184,0.0,0.0,81,0.00,CLR,OVC,0.00,0.0,WeatherDisplay:10.37,2013-10-30 22:50:00,
2013-10-30 18:56:00,66.3,60.6,30.22,South,184,0.0,0.0,82,0.00,CLR,OVC,0.00,0.0,WeatherDisplay:10.37,2013-10-30 22:56:00,
2013-10-30 19:01:00,65.7,60.1,30.23,South,184,0.0,0.0,82,0.00,CLR,OVC,0.00,0.0,WeatherDisplay:10.37,2013-10-30 23:01:00,
2013-10-30 19:06:00,65.3,60.0,30.22,South,184,0.0,0.0,83,0.00,CLR,OVC,0.00,0.0,WeatherDisplay:10.37,2013-10-30 23:06:00,
2013-10-30 19:11:00,65.0,60.0,30.22,South,184,0.0,0.0,84,0.00,CLR,OVC,0.00,0.0,WeatherDisplay:10.37,2013-10-30 23:11:00,
2013-10-30 19:16:00,64.5,59.9,30.23,South,184,0.0,0.0,85,0.00,CLR,OVC,0.00,0.0,WeatherDisplay:10.37,2013-10-30 23:16:00,
2013-10-30 19:21:00,64.1,59.5,30.23,South,184,0.0,0.0,85,0.00,CLR,OVC,0.00,0.0,WeatherDisplay:10.37,2013-10-30 23:21:00,
2013-10-30 19:26:00,63.9,59.6,30.23,South,184,0.0,0.0,86,0.00,CLR,OVC,0.00,0.0,WeatherDisplay:10.37,2013-10-30 23:26:00,
2013-10-30 19:31:00,63.6,59.3,30.23,South,184,0.0,0.0,86,0.00,CLR,OVC,0.00,0.0,WeatherDisplay:10.37,2013-10-30 23:31:00,
2013-10-30 19:36:00,63.3,59.4,30.23,South,184,0.0,0.0,87,0.00,CLR,OVC,0.00,0.0,WeatherDisplay:10.37,2013-10-30 23:36:00,
2013-10-30 19:41:00,63.0,59.4,30.23,South,184,0.0,0.0,88,0.00,CLR,OVC,0.00,0.0,WeatherDisplay:10.37,2013-10-30 23:41:00,
2013-10-30 19:46:00,62.8,59.2,30.23,South,184,0.0,0.0,88,0.00,CLR,OVC,0.00,0.0,WeatherDisplay:10.37,2013-10-30 23:46:00,
2013-10-30 19:51:00,62.5,58.9,30.23,South,184,0.0,0.0,88,0.00,CLR,OVC,0.00,0.0,WeatherDisplay:10.37,2013-10-30 23:51:00,
2013-10-30 19:56:00,62.3,58.7,30.23,South,184,0.0,0.0,88,0.00,CLR,OVC,0.00,0.0,WeatherDisplay:10.37,2013-10-30 23:56:00,
2013-10-30 20:01:00,62.0,58.4,30.23,South,184,0.0,0.0,88,0.00,CLR,OVC,0.00,0.0,WeatherDisplay:10.37,2013-10-31 00:01:00,
2013-10-30 20:06:00,61.8,58.5,30.23,South,184,0.0,0.0,89,0.00,CLR,OVC,0.00,0.0,WeatherDisplay:10.37,2013-10-31 00:06:00,
2013-10-30 20:11:00,61.6,58.6,30.23,South,184,0.0,0.0,90,0.00,CLR,OVC,0.00,0.0,WeatherDisplay:10.37,2013-10-31 00:11:00,
2013-10-30 20:16:00,61.3,58.3,30.24,South,184,0.0,0.0,90,0.00,CLR,OVC,0.00,0.0,WeatherDisplay:10.37,2013-10-31 00:16:00,
2013-10-30 20:21:00,61.1,58.1,30.24,South,184,0.0,0.0,90,0.00,CLR,OVC,0.00,0.0,WeatherDisplay:10.37,2013-10-31 00:21:00,
2013-10-30 20:26:00,60.9,57.9,30.24,South,184,0.0,0.0,90,0.00,CLR,OVC,0.00,0.0,WeatherDisplay:10.37,2013-10-31 00:26:00,
2013-10-30 20:31:00,60.9,58.6,30.24,South,184,0.0,0.0,92,0.00,CLR,OVC,0.00,0.0,WeatherDisplay:10.37,2013-10-31 00:31:00,
2013-10-30 20:36:00,60.8,58.5,30.24,South,184,0.0,0.0,92,0.00,CLR,OVC,0.00,0.0,WeatherDisplay:10.37,2013-10-31 00:36:00,
2013-10-30 20:41:00,60.6,58.0,30.24,South,184,0.0,0.0,91,0.00,CLR,OVC,0.00,0.0,WeatherDisplay:10.37,2013-10-31 00:41:00,
2013-10-30 20:46:00,60.6,58.3,30.23,South,184,0.0,0.0,92,0.00,CLR,OVC,0.00,0.0,WeatherDisplay:10.37,2013-10-31 00:46:00,
2013-10-30 20:51:00,60.4,58.1,30.23,South,184,0.0,0.0,92,0.00,CLR,OVC,0.00,0.0,WeatherDisplay:10.37,2013-10-31 00:51:00,
2013-10-30 20:56:00,60.3,58.0,30.23,South,184,0.0,0.0,92,0.00,CLR,OVC,0.00,0.0,WeatherDisplay:10.37,2013-10-31 00:56:00,
2013-10-30 21:01:00,60.1,57.8,30.23,South,184,0.0,0.0,92,0.00,CLR,OVC,0.00,0.0,WeatherDisplay:10.37,2013-10-31 01:01:00,
2013-10-30 21:06:00,60.0,57.7,30.23,South,184,0.0,0.0,92,0.00,CLR,OVC,0.00,0.0,WeatherDisplay:10.37,2013-10-31 01:06:00,
2013-10-30 21:11:00,59.9,57.9,30.23,South,184,0.0,0.0,93,0.00,CLR,OVC,0.00,0.0,WeatherDisplay:10.37,2013-10-31 01:11:00,
2013-10-30 21:16:00,59.9,57.9,30.24,South,184,0.0,0.0,93,0.00,CLR,OVC,0.00,0.0,WeatherDisplay:10.37,2013-10-31 01:16:00,
2013-10-30 21:21:00,59.9,58.2,30.24,South,184,0.0,0.0,94,0.00,CLR,OVC,0.00,0.0,WeatherDisplay:10.37,2013-10-31 01:21:00,
2013-10-30 21:26:00,59.8,57.8,30.23,South,184,0.0,0.0,93,0.00,CLR,OVC,0.00,0.0,WeatherDisplay:10.37,2013-10-31 01:26:00,
2013-10-30 21:31:00,59.7,57.7,30.23,South,184,0.0,0.0,93,0.00,CLR,OVC,0.00,0.0,WeatherDisplay:10.37,2013-10-31 01:31:00,
2013-10-30 21:36:00,59.6,57.6,30.23,South,184,0.0,0.0,93,0.00,CLR,OVC,0.00,0.0,WeatherDisplay:10.37,2013-10-31 01:36:00,
2013-10-30 21:41:00,59.4,57.7,30.23,South,184,0.0,0.0,94,0.00,CLR,OVC,0.00,0.0,WeatherDisplay:10.37,2013-10-31 01:41:00,
2013-10-30 21:46:00,59.3,57.6,30.23,South,184,0.0,0.0,94,0.00,CLR,OVC,0.00,0.0,WeatherDisplay:10.37,2013-10-31 01:46:00,
2013-10-30 21:52:00,59.2,57.5,30.23,South,184,0.0,0.0,94,0.00,CLR,OVC,0.00,0.0,WeatherDisplay:10.37,2013-10-31 01:52:00,
2013-10-30 21:57:00,59.1,57.4,30.23,South,184,0.0,0.0,94,0.00,CLR,OVC,0.00,0.0,WeatherDisplay:10.37,2013-10-31 01:57:00,
2013-10-30 22:02:00,58.9,57.2,30.23,South,184,0.0,0.0,94,0.00,CLR,OVC,0.00,0.0,WeatherDisplay:10.37,2013-10-31 02:02:00,
2013-10-30 22:07:00,58.9,57.2,30.23,South,184,0.0,0.0,94,0.00,CLR,OVC,0.00,0.0,WeatherDisplay:10.37,2013-10-31 02:07:00,
2013-10-30 22:12:00,58.7,57.0,30.23,South,184,0.0,0.0,94,0.00,CLR,OVC,0.00,0.0,WeatherDisplay:10.37,2013-10-31 02:12:00,
2013-10-30 22:17:00,58.6,56.9,30.23,South,184,0.0,0.0,94,0.00,CLR,OVC,0.00,0.0,WeatherDisplay:10.37,2013-10-31 02:17:00,
2013-10-30 22:22:00,58.6,56.9,30.23,South,184,0.0,0.0,94,0.00,CLR,OVC,0.00,0.0,WeatherDisplay:10.37,2013-10-31 02:22:00,
2013-10-30 22:27:00,58.9,57.8,30.23,South,184,0.0,0.0,96,0.00,CLR,OVC,0.00,0.0,WeatherDisplay:10.37,2013-10-31 02:27:00,
2013-10-30 22:32:00,59.1,58.0,30.23,South,184,0.0,0.0,96,0.00,CLR,OVC,0.00,0.0,WeatherDisplay:10.37,2013-10-31 02:32:00,
2013-10-30 22:37:00,59.0,57.6,30.23,South,184,0.0,0.0,95,0.00,CLR,OVC,0.00,0.0,WeatherDisplay:10.37,2013-10-31 02:37:00,
2013-10-30 22:42:00,58.8,57.4,30.23,South,184,0.0,0.0,95,0.00,CLR,OVC,0.00,0.0,WeatherDisplay:10.37,2013-10-31 02:42:00,
2013-10-30 22:47:00,58.7,57.0,30.23,South,184,0.0,0.0,94,0.00,CLR,OVC,0.00,0.0,WeatherDisplay:10.37,2013-10-31 02:47:00,
2013-10-30 22:52:00,58.5,56.8,30.23,South,184,0.0,0.0,94,0.00,CLR,OVC,0.00,0.0,WeatherDisplay:10.37,2013-10-31 02:52:00,
2013-10-30 22:57:00,58.3,56.6,30.23,South,184,0.0,0.0,94,0.00,CLR,OVC,0.00,0.0,WeatherDisplay:10.37,2013-10-31 02:57:00,
2013-10-30 23:01:00,58.2,56.5,30.23,South,184,0.0,0.0,94,0.00,CLR,OVC,0.00,0.0,WeatherDisplay:10.37,2013-10-31 03:01:00,
2013-10-30 23:06:00,58.1,56.7,30.23,South,184,0.0,0.0,95,0.00,CLR,OVC,0.00,0.0,WeatherDisplay:10.37,2013-10-31 03:06:00,
2013-10-30 23:11:00,58.0,56.6,30.23,South,184,0.0,0.0,95,0.00,CLR,OVC,0.00,0.0,WeatherDisplay:10.37,2013-10-31 03:11:00,
2013-10-30 23:16:00,58.0,56.6,30.23,South,184,0.0,0.0,95,0.00,CLR,OVC,0.00,0.0,WeatherDisplay:10.37,2013-10-31 03:16:00,
2013-10-30 23:21:00,58.0,56.6,30.23,South,184,0.0,0.0,95,0.00,CLR,OVC,0.00,0.0,WeatherDisplay:10.37,2013-10-31 03:21:00,
2013-10-30 23:26:00,58.0,56.6,30.23,South,184,0.0,0.0,95,0.00,CLR,OVC,0.00,0.0,WeatherDisplay:10.37,2013-10-31 03:26:00,
2013-10-30 23:31:00,57.9,56.5,30.24,South,184,0.0,0.0,95,0.00,CLR,OVC,0.00,0.0,WeatherDisplay:10.37,2013-10-31 03:31:00,
2013-10-30 23:36:00,57.8,56.4,30.24,South,184,0.0,0.0,95,0.00,CLR,OVC,0.00,0.0,WeatherDisplay:10.37,2013-10-31 03:36:00,
2013-10-30 23:41:00,57.7,56.3,30.23,South,184,0.0,0.0,95,0.00,CLR,OVC,0.00,0.0,WeatherDisplay:10.37,2013-10-31 03:41:00,
2013-10-30 23:46:00,57.5,56.1,30.24,South,184,0.0,0.0,95,0.00,CLR,OVC,0.00,0.0,WeatherDisplay:10.37,2013-10-31 03:46:00,
2013-10-30 23:51:00,57.4,56.0,30.23,South,184,0.0,0.0,95,0.00,CLR,OVC,0.00,0.0,WeatherDisplay:10.37,2013-10-31 03:51:00,
2013-10-30 23:56:00,57.3,55.9,30.23,South,184,0.0,0.0,95,0.00,CLR,OVC,0.00,0.0,WeatherDisplay:10.37,2013-10-31 03:56:00,